createdAt,value
2022-08-11T00:01:27.310Z,32.60
2022-08-11T00:04:03.155Z,32.99
2022-08-11T00:06:40.006Z,32.97
2022-08-11T00:09:11.082Z,32.92
2022-08-11T00:11:46.044Z,33.10
2022-08-11T00:14:37.437Z,33.26
2022-08-11T00:17:09.538Z,33.29
2022-08-11T00:20:11.732Z,33.75
2022-08-11T00:22:45.133Z,34.33
2022-08-11T00:25:16.310Z,34.73
2022-08-11T00:27:44.126Z,34.78
2022-08-11T00:30:13.302Z,35.03
2022-08-11T00:32:55.292Z,35.88
2022-08-11T00:35:55.337Z,35.69
2022-08-11T00:38:17.274Z,35.82
2022-08-11T00:40:53.612Z,35.89
2022-08-11T00:43:43.002Z,36.19
2022-08-11T00:46:22.702Z,35.90
2022-08-11T00:49:07.093Z,36.78
2022-08-11T00:52:05.688Z,36.02
2022-08-11T00:54:39.530Z,35.53
2022-08-11T00:57:37.610Z,35.72
2022-08-11T01:00:16.300Z,35.34
2022-08-11T01:03:07.794Z,34.74
2022-08-11T01:05:46.603Z,34.67
2022-08-11T01:08:19.802Z,35.42
2022-08-11T01:11:02.963Z,35.15
2022-08-11T01:13:46.794Z,34.95
2022-08-11T01:16:39.440Z,35.05
2022-08-11T01:19:29.750Z,35.59
2022-08-11T01:22:15.725Z,34.83
2022-08-11T01:25:16.828Z,34.68
2022-08-11T01:28:03.166Z,34.87
2022-08-11T01:30:54.815Z,34.81
2022-08-11T01:33:59.675Z,34.90
2022-08-11T01:37:05.382Z,35.38
2022-08-11T01:39:51.511Z,35.48
2022-08-11T01:43:11.994Z,35.91
2022-08-11T01:45:51.572Z,35.48
2022-08-11T01:48:38.043Z,35.41
2022-08-11T01:51:25.053Z,35.95
2022-08-11T01:54:09.990Z,36.00
2022-08-11T01:56:50.001Z,36.25
2022-08-11T01:59:19.564Z,37.11
2022-08-11T02:02:05.629Z,36.25
2022-08-11T02:04:44.209Z,36.06
2022-08-11T02:07:26.250Z,35.67
2022-08-11T02:10:22.965Z,36.27
2022-08-11T02:13:00.492Z,36.35
2022-08-11T02:15:36.455Z,36.83
2022-08-11T02:18:10.938Z,36.32
2022-08-11T02:21:03.348Z,35.70
2022-08-11T02:24:06.113Z,35.42
2022-08-11T02:26:46.351Z,35.43
2022-08-11T02:29:19.763Z,35.41
2022-08-11T02:32:25.047Z,34.82
2022-08-11T02:35:12.366Z,34.91
2022-08-11T02:38:12.810Z,35.03
2022-08-11T02:41:01.438Z,35.66
2022-08-11T02:43:40.595Z,34.80
2022-08-11T02:46:21.388Z,36.02
2022-08-11T02:50:02.734Z,35.88
2022-08-11T02:52:52.157Z,35.41
2022-08-11T02:55:55.681Z,35.82
2022-08-11T02:58:28.115Z,36.21
2022-08-11T03:01:23.895Z,35.55
2022-08-11T03:03:57.946Z,35.67
2022-08-11T03:06:52.096Z,35.60
2022-08-11T03:09:26.288Z,35.66
2022-08-11T03:12:21.359Z,35.90
2022-08-11T03:15:30.844Z,36.06
2022-08-11T03:18:16.416Z,36.04
2022-08-11T03:20:56.657Z,36.32
2022-08-11T03:23:31.422Z,36.45
2022-08-11T03:26:07.703Z,36.15
2022-08-11T03:28:53.425Z,36.30
2022-08-11T03:31:28.611Z,36.64
2022-08-11T03:34:09.091Z,37.02
2022-08-11T03:37:14.970Z,36.99
2022-08-11T03:39:56.135Z,37.00
2022-08-11T03:42:33.399Z,37.12
2022-08-11T03:45:40.988Z,37.22
2022-08-11T03:48:25.748Z,36.69
2022-08-11T03:50:58.427Z,36.69
2022-08-11T03:53:58.340Z,36.77
2022-08-11T03:56:48.017Z,36.72
2022-08-11T03:59:46.145Z,36.52
2022-08-11T04:02:39.302Z,36.51
2022-08-11T04:05:38.983Z,36.86
2022-08-11T04:08:33.895Z,36.90
2022-08-11T04:11:29.945Z,36.74
2022-08-11T04:14:49.989Z,36.42
2022-08-11T04:17:38.965Z,37.05
2022-08-11T04:20:31.397Z,37.32
2022-08-11T04:24:33.042Z,37.97
2022-08-11T04:26:34.368Z,37.91
2022-08-11T04:29:15.625Z,38.18
2022-08-11T04:31:52.804Z,38.16
2022-08-11T04:34:36.492Z,38.49
2022-08-11T04:37:31.832Z,38.61
2022-08-11T04:40:25.072Z,39.03
2022-08-11T04:43:23.428Z,39.24
2022-08-11T04:46:09.120Z,39.29
2022-08-11T04:49:10.246Z,38.92
2022-08-11T04:52:35.994Z,38.99
2022-08-11T04:55:53.502Z,39.02
2022-08-11T04:59:08.601Z,39.26
2022-08-11T05:01:41.880Z,39.23
2022-08-11T05:04:58.219Z,38.79
2022-08-11T05:08:23.439Z,38.63
2022-08-11T05:11:16.310Z,37.92
2022-08-11T05:14:07.196Z,37.59
2022-08-11T05:17:10.688Z,37.22
2022-08-11T05:19:56.874Z,35.99
2022-08-11T05:22:47.337Z,35.47
2022-08-11T05:26:44.551Z,35.36
2022-08-11T05:28:58.270Z,34.62
2022-08-11T05:31:51.387Z,35.16
2022-08-11T05:34:44.332Z,34.42
2022-08-11T05:37:34.095Z,33.94
2022-08-11T05:40:27.436Z,33.78
2022-08-11T05:43:31.047Z,34.11
2022-08-11T05:46:22.444Z,34.14
2022-08-11T05:49:09.344Z,33.76
2022-08-11T05:52:05.034Z,33.12
2022-08-11T05:54:54.349Z,32.97
2022-08-11T05:57:39.618Z,32.27
2022-08-11T06:00:14.456Z,32.48
2022-08-11T06:02:50.316Z,34.80
2022-08-11T06:05:19.471Z,34.21
2022-08-11T06:07:50.025Z,33.44
2022-08-11T06:10:32.376Z,32.74
2022-08-11T06:13:03.299Z,31.67
2022-08-11T06:15:34.633Z,31.76
2022-08-11T06:18:03.449Z,31.28
2022-08-11T06:20:36.882Z,30.68
2022-08-11T06:23:06.934Z,31.37
2022-08-11T06:25:35.805Z,30.98
2022-08-11T06:28:06.361Z,30.50
2022-08-11T06:30:39.598Z,29.83
2022-08-11T06:33:31.627Z,30.32
2022-08-11T06:36:14.601Z,29.60
2022-08-11T06:39:02.572Z,29.71
2022-08-11T06:41:49.951Z,29.84
2022-08-11T06:44:24.450Z,29.12
2022-08-11T06:46:53.108Z,28.70
2022-08-11T06:49:41.794Z,28.22
2022-08-11T06:52:34.497Z,27.94
2022-08-11T06:55:08.638Z,28.00
2022-08-11T06:57:58.484Z,28.40
2022-08-11T07:00:28.620Z,28.08
2022-08-11T07:03:03.956Z,27.06
2022-08-11T07:05:46.893Z,27.24
2022-08-11T07:09:03.621Z,26.70
2022-08-11T07:12:27.224Z,26.45
2022-08-11T07:15:15.438Z,26.60
2022-08-11T07:18:10.443Z,26.46
2022-08-11T07:21:02.421Z,25.52
2022-08-11T07:23:50.763Z,25.36
2022-08-11T07:26:38.755Z,25.13
2022-08-11T07:29:07.349Z,25.37
2022-08-11T07:31:37.623Z,24.73
2022-08-11T07:34:28.665Z,24.28
2022-08-11T07:36:58.030Z,24.24
2022-08-11T07:39:33.348Z,24.54
2022-08-11T07:42:06.508Z,24.58
2022-08-11T07:44:54.504Z,24.51
2022-08-11T07:47:41.340Z,23.73
2022-08-11T07:50:28.314Z,24.31
2022-08-11T07:52:57.908Z,23.77
2022-08-11T07:55:49.016Z,23.67
2022-08-11T07:58:37.765Z,23.35
2022-08-11T08:01:38.311Z,24.42
2022-08-11T08:04:26.056Z,23.17
2022-08-11T08:07:12.491Z,23.71
2022-08-11T08:09:59.287Z,23.32
2022-08-11T08:12:45.761Z,23.87
2022-08-11T08:15:33.800Z,23.34
2022-08-11T08:18:09.506Z,23.05
2022-08-11T08:20:51.222Z,23.81
2022-08-11T08:23:33.763Z,23.37
2022-08-11T08:26:04.666Z,23.54
2022-08-11T08:28:32.930Z,23.46
2022-08-11T08:31:00.592Z,23.83
2022-08-11T08:33:30.820Z,23.82
2022-08-11T08:36:16.892Z,24.00
2022-08-11T08:38:49.643Z,23.47
2022-08-11T08:41:32.594Z,24.29
2022-08-11T08:44:27.628Z,24.56
2022-08-11T08:46:54.999Z,24.56
2022-08-11T08:49:27.727Z,25.35
2022-08-11T08:52:20.124Z,25.00
2022-08-11T08:54:44.894Z,25.12
2022-08-11T08:57:13.262Z,24.73
2022-08-11T08:59:48.466Z,24.47
2022-08-11T09:02:33.452Z,24.00
2022-08-11T09:05:05.875Z,23.81
2022-08-11T09:07:39.844Z,24.13
2022-08-11T09:10:10.090Z,24.30
2022-08-11T09:12:39.811Z,23.71
2022-08-11T09:15:10.267Z,24.87
2022-08-11T09:17:45.314Z,24.76
2022-08-11T09:20:18.101Z,24.50
2022-08-11T09:26:18.911Z,24.49
2022-08-11T09:28:47.556Z,23.96
2022-08-11T09:31:15.000Z,23.87
2022-08-11T09:33:43.761Z,23.92
2022-08-11T09:36:31.765Z,23.16
2022-08-11T09:39:19.322Z,23.03
2022-08-11T09:42:01.041Z,22.51
2022-08-11T09:44:50.275Z,22.29
2022-08-11T09:47:29.743Z,22.17
2022-08-11T09:50:00.796Z,21.62
2022-08-11T09:52:29.362Z,22.28
2022-08-11T09:54:56.916Z,20.57
2022-08-11T09:57:44.139Z,21.14
2022-08-11T10:00:14.158Z,20.88
2022-08-11T10:02:45.254Z,19.47
2022-08-11T10:05:34.388Z,19.63
2022-08-11T10:08:02.973Z,19.78
2022-08-11T10:10:34.906Z,19.36
2022-08-11T10:13:05.636Z,19.69
2022-08-11T10:16:00.026Z,20.85
2022-08-11T10:18:53.964Z,22.00
2022-08-11T10:21:28.202Z,22.14
2022-08-11T10:24:17.515Z,22.30
2022-08-11T10:26:53.594Z,22.32
2022-08-11T10:29:45.457Z,22.41
2022-08-11T10:32:49.345Z,21.67
2022-08-11T10:35:32.087Z,21.78
2022-08-11T10:38:06.435Z,21.96
2022-08-11T10:40:35.854Z,21.73
2022-08-11T10:43:05.415Z,21.90
2022-08-11T10:45:56.512Z,21.57
2022-08-11T10:48:25.996Z,20.78
2022-08-11T10:51:12.648Z,20.83
2022-08-11T10:54:04.708Z,19.94
2022-08-11T10:56:54.670Z,20.32
2022-08-11T10:59:23.902Z,20.56
2022-08-11T11:01:52.901Z,20.88
2022-08-11T11:04:29.299Z,20.46
2022-08-11T11:07:08.096Z,20.00
2022-08-11T11:09:43.959Z,19.78
2022-08-11T11:12:38.099Z,19.84
2022-08-11T11:15:25.066Z,19.62
2022-08-11T11:18:06.847Z,20.22
2022-08-11T11:21:07.361Z,19.65
2022-08-11T11:24:03.007Z,18.96
2022-08-11T11:26:55.822Z,19.44
2022-08-11T11:29:26.272Z,17.74
2022-08-11T11:32:08.947Z,16.62
2022-08-11T11:34:53.713Z,16.84
2022-08-11T11:37:25.419Z,17.36
2022-08-11T11:39:54.692Z,17.88
2022-08-11T11:42:22.546Z,17.46
2022-08-11T11:44:52.191Z,17.58
2022-08-11T11:47:23.417Z,18.50
2022-08-11T11:49:50.828Z,18.74
2022-08-11T11:52:19.832Z,18.38
2022-08-11T11:54:50.824Z,18.09
2022-08-11T11:57:40.628Z,18.55
2022-08-11T12:00:33.676Z,18.26
2022-08-11T12:03:05.061Z,18.65
2022-08-11T12:05:34.648Z,18.76
2022-08-11T12:08:13.034Z,19.11
2022-08-11T12:10:50.744Z,18.69
2022-08-11T12:13:37.616Z,18.34
2022-08-11T12:16:34.851Z,18.17
2022-08-11T12:18:59.504Z,18.48
2022-08-11T12:21:28.639Z,18.15
2022-08-11T12:24:16.548Z,17.98
2022-08-11T12:27:15.185Z,18.24
2022-08-11T12:29:41.178Z,18.18
2022-08-11T12:32:12.071Z,18.30
2022-08-11T12:34:39.802Z,17.38
2022-08-11T12:37:13.031Z,17.41
2022-08-11T12:40:16.078Z,17.60
2022-08-11T12:43:21.212Z,18.08
2022-08-11T12:45:58.390Z,17.51
2022-08-11T12:48:58.562Z,18.55
2022-08-11T12:52:11.528Z,18.93
2022-08-11T12:54:42.106Z,19.75
2022-08-11T12:57:37.422Z,19.53
2022-08-11T13:00:25.671Z,19.62
2022-08-11T13:03:12.732Z,19.47
2022-08-11T13:05:44.641Z,20.14
2022-08-11T13:08:16.867Z,20.77
2022-08-11T13:11:03.908Z,19.64
2022-08-11T13:13:55.085Z,20.28
2022-08-11T13:16:20.711Z,19.44
2022-08-11T13:18:50.147Z,19.37
2022-08-11T13:21:20.692Z,19.70
2022-08-11T13:24:00.537Z,19.94
2022-08-11T13:26:41.643Z,19.33
2022-08-11T13:29:21.220Z,19.25
2022-08-11T13:31:49.328Z,19.23
2022-08-11T13:34:17.906Z,19.57
2022-08-11T13:36:45.817Z,19.90
2022-08-11T13:39:13.573Z,19.63
2022-08-11T13:41:44.004Z,19.65
2022-08-11T13:44:15.632Z,19.72
2022-08-11T13:46:46.560Z,19.73
2022-08-11T13:49:17.565Z,19.82
2022-08-11T13:51:45.258Z,20.09
2022-08-11T13:54:20.371Z,20.52
2022-08-11T13:56:52.297Z,20.58
2022-08-11T13:59:29.558Z,20.85
2022-08-11T14:02:22.305Z,21.20
2022-08-11T14:04:58.005Z,21.58
2022-08-11T14:07:28.812Z,22.01
2022-08-11T14:09:59.293Z,22.16
2022-08-11T14:12:48.223Z,21.99
2022-08-11T14:15:29.445Z,22.03
2022-08-11T14:18:05.634Z,21.74
2022-08-11T14:20:54.459Z,21.72
2022-08-11T14:23:28.070Z,21.53
2022-08-11T14:26:15.282Z,22.25
2022-08-11T14:28:45.140Z,22.45
2022-08-11T14:31:16.169Z,22.46
2022-08-11T14:34:00.237Z,22.47
2022-08-11T14:36:32.685Z,22.74
2022-08-11T14:39:02.227Z,22.73
2022-08-11T14:42:10.364Z,22.67
2022-08-11T14:44:56.515Z,22.62
2022-08-11T14:47:25.636Z,22.64
2022-08-11T14:50:08.254Z,22.54
2022-08-11T14:52:39.562Z,22.46
2022-08-11T14:55:26.608Z,23.04
2022-08-11T14:57:57.074Z,22.81
2022-08-11T15:00:25.140Z,22.65
2022-08-11T15:03:13.270Z,22.77
2022-08-11T15:05:57.449Z,22.59
2022-08-11T15:08:53.915Z,22.28
2022-08-11T15:11:41.845Z,22.39
2022-08-11T15:14:10.783Z,22.36
2022-08-11T15:17:03.274Z,22.51
2022-08-11T15:19:36.662Z,22.70
2022-08-11T15:22:29.173Z,22.54
2022-08-11T15:24:58.995Z,23.16
2022-08-11T15:27:46.831Z,22.42
2022-08-11T15:30:34.261Z,22.36
2022-08-11T15:33:23.698Z,22.64
2022-08-11T15:36:11.568Z,22.23
2022-08-11T15:38:43.118Z,21.74
2022-08-11T15:41:32.385Z,21.95
2022-08-11T15:44:19.556Z,22.11
2022-08-11T15:46:52.526Z,22.00
2022-08-11T15:50:11.056Z,22.14
2022-08-11T15:52:30.947Z,21.81
2022-08-11T15:55:02.164Z,22.24
2022-08-11T15:57:49.386Z,22.20
2022-08-11T16:00:35.730Z,21.97
2022-08-11T16:03:22.159Z,22.11
2022-08-11T16:05:52.874Z,21.79
2022-08-11T16:08:33.222Z,21.69
2022-08-11T16:11:01.911Z,21.87
2022-08-11T16:13:34.786Z,21.42
2022-08-11T16:16:15.142Z,21.40
2022-08-11T16:18:52.083Z,21.44
2022-08-11T16:21:26.159Z,21.51
2022-08-11T16:24:07.874Z,21.62
2022-08-11T16:27:08.760Z,21.18
2022-08-11T16:29:26.426Z,21.52
2022-08-11T16:32:14.431Z,21.69
2022-08-11T16:35:02.887Z,21.58
2022-08-11T16:37:52.116Z,21.88
2022-08-11T16:40:22.515Z,21.71
2022-08-11T16:43:11.275Z,21.97
2022-08-11T16:45:59.957Z,21.94
2022-08-11T16:48:37.423Z,22.24
2022-08-11T16:51:07.429Z,22.24
2022-08-11T16:54:00.218Z,22.62
2022-08-11T16:56:28.547Z,23.13
2022-08-11T16:59:17.107Z,23.66
2022-08-11T17:01:45.300Z,24.19
2022-08-11T17:04:52.533Z,24.71
2022-08-11T17:07:41.512Z,24.66
2022-08-11T17:10:50.807Z,24.69
2022-08-11T17:13:26.202Z,25.11
2022-08-11T17:16:13.122Z,25.00
2022-08-11T17:18:49.304Z,25.54
2022-08-11T17:21:21.035Z,25.32
2022-08-11T17:23:52.812Z,25.43
2022-08-11T17:26:23.462Z,25.31
2022-08-11T17:28:57.960Z,25.64
2022-08-11T17:31:46.082Z,25.71
2022-08-11T17:34:34.378Z,25.90
2022-08-11T17:37:03.216Z,27.27
2022-08-11T17:39:31.824Z,27.79
2022-08-11T17:42:19.475Z,27.60
2022-08-11T17:45:06.854Z,28.22
2022-08-11T17:48:07.074Z,28.47
2022-08-11T17:50:36.576Z,29.26
2022-08-11T17:53:22.636Z,30.12
2022-08-11T17:56:09.294Z,30.34
2022-08-11T17:58:57.331Z,30.16
2022-08-11T18:01:25.560Z,30.15
2022-08-11T18:03:58.377Z,30.03
2022-08-11T18:06:34.877Z,30.10
2022-08-11T18:09:27.262Z,30.08
2022-08-11T18:12:14.372Z,29.79
2022-08-11T18:15:04.419Z,29.71
2022-08-11T18:17:50.354Z,29.80
2022-08-11T18:20:38.176Z,29.68
2022-08-11T18:23:45.819Z,30.22
2022-08-11T18:26:39.044Z,30.22
2022-08-11T18:29:26.380Z,30.26
2022-08-11T18:32:21.129Z,30.61
2022-08-11T18:35:09.318Z,30.54
2022-08-11T18:38:04.336Z,30.53
2022-08-11T18:40:50.891Z,30.56
2022-08-11T18:43:43.337Z,29.96
2022-08-11T18:46:32.060Z,30.41
2022-08-11T18:49:22.519Z,30.58
2022-08-11T18:52:13.384Z,30.32
2022-08-11T18:55:00.950Z,30.05
2022-08-11T18:57:53.706Z,30.21
2022-08-11T19:00:46.538Z,30.32
2022-08-11T19:03:43.437Z,30.53
2022-08-11T19:06:40.725Z,30.60
2022-08-11T19:09:36.681Z,30.51
2022-08-11T19:12:26.957Z,30.39
2022-08-11T19:15:16.298Z,30.73
2022-08-11T19:18:04.823Z,30.77
2022-08-11T19:20:57.122Z,30.94
2022-08-11T19:23:54.573Z,30.94
2022-08-11T19:26:45.016Z,31.20
2022-08-11T19:30:07.619Z,31.08
2022-08-11T19:32:53.419Z,31.24
2022-08-11T19:35:45.622Z,30.66
2022-08-11T19:38:32.730Z,30.95
2022-08-11T19:41:56.165Z,31.08
2022-08-11T19:44:26.393Z,32.48
2022-08-11T19:47:13.861Z,32.64
2022-08-11T19:50:04.469Z,33.75
2022-08-11T19:52:56.149Z,31.04
2022-08-11T19:55:45.392Z,30.42
2022-08-11T19:58:35.596Z,30.63
2022-08-11T20:01:24.257Z,30.66
2022-08-11T20:04:11.124Z,30.60
2022-08-11T20:06:59.375Z,30.54
2022-08-11T20:10:04.668Z,30.98
2022-08-11T20:12:54.745Z,31.33
2022-08-11T20:15:42.800Z,31.03
2022-08-11T20:18:32.733Z,31.31
2022-08-11T20:21:20.515Z,31.33
2022-08-11T20:24:16.653Z,31.75
2022-08-11T20:27:04.224Z,31.30
2022-08-11T20:29:52.485Z,31.69
2022-08-11T20:32:39.712Z,31.70
2022-08-11T20:35:28.927Z,31.91
2022-08-11T20:38:15.660Z,32.33
2022-08-11T20:41:02.443Z,32.11
2022-08-11T20:44:05.499Z,31.93
2022-08-11T20:47:00.384Z,32.06
2022-08-11T20:49:53.874Z,32.70
2022-08-11T20:52:48.556Z,32.34
2022-08-11T20:55:51.903Z,32.58
2022-08-11T21:01:47.091Z,32.69
2022-08-11T21:04:54.071Z,32.37
2022-08-11T21:07:57.330Z,32.91
2022-08-11T21:10:52.002Z,32.67
2022-08-11T21:13:42.093Z,32.80
2022-08-11T21:16:29.368Z,32.67
2022-08-11T21:20:01.259Z,32.94
2022-08-11T21:22:42.391Z,33.34
2022-08-11T21:25:46.556Z,33.48
2022-08-11T21:28:33.690Z,33.76
2022-08-11T21:31:23.338Z,33.93
2022-08-11T21:34:09.801Z,34.13
2022-08-11T21:36:57.267Z,34.25
2022-08-11T21:39:43.942Z,34.28
2022-08-11T21:42:30.885Z,34.52
2022-08-11T21:45:16.779Z,34.17
2022-08-11T21:48:03.160Z,34.40
2022-08-11T21:50:48.998Z,34.62
2022-08-11T21:53:36.173Z,34.66
2022-08-11T21:56:22.552Z,34.39
2022-08-11T21:59:15.779Z,34.05
2022-08-11T22:02:03.441Z,34.45
2022-08-11T22:04:49.584Z,34.36
2022-08-11T22:07:39.534Z,34.30
2022-08-11T22:10:42.011Z,34.02
2022-08-11T22:13:31.210Z,34.49
2022-08-11T22:16:20.187Z,33.69
2022-08-11T22:19:08.705Z,34.25
2022-08-11T22:22:01.256Z,33.86
2022-08-11T22:24:51.377Z,34.15
2022-08-11T22:27:38.661Z,34.22
2022-08-11T22:30:26.280Z,34.06
2022-08-11T22:33:15.062Z,34.00
2022-08-11T22:36:03.256Z,34.22
2022-08-11T22:38:51.547Z,34.70
2022-08-11T22:41:37.659Z,34.61
2022-08-11T22:44:23.999Z,34.87
2022-08-11T22:47:10.571Z,35.06
2022-08-11T22:49:58.542Z,35.08
2022-08-11T22:52:47.110Z,35.61
2022-08-11T22:55:34.050Z,35.52
2022-08-11T22:58:24.811Z,35.28
2022-08-11T23:01:11.484Z,35.49
2022-08-11T23:03:57.963Z,34.90
2022-08-11T23:06:44.655Z,35.03
2022-08-11T23:09:30.774Z,34.70
2022-08-11T23:12:17.218Z,35.22
2022-08-11T23:15:04.176Z,35.17
2022-08-11T23:17:50.744Z,35.36
2022-08-11T23:20:45.342Z,35.39
2022-08-11T23:23:37.476Z,35.61
2022-08-11T23:26:23.825Z,35.67
2022-08-11T23:29:11.574Z,35.97
2022-08-11T23:31:57.650Z,35.94
2022-08-11T23:35:04.614Z,36.17
2022-08-11T23:37:51.511Z,36.50
2022-08-11T23:40:37.914Z,36.49
2022-08-11T23:43:24.443Z,36.19
2022-08-11T23:46:10.670Z,36.35
2022-08-11T23:48:57.658Z,36.54
2022-08-11T23:51:44.530Z,36.76
2022-08-11T23:54:35.113Z,36.91
2022-08-11T23:57:23.998Z,37.21
